createdAt,value
2023-01-22T00:01:30.754Z,10.10
2023-01-22T00:03:59.487Z,9.40
2023-01-22T00:06:28.044Z,9.40
2023-01-22T00:08:56.216Z,11.77
2023-01-22T00:11:25.903Z,11.93
2023-01-22T00:13:54.141Z,10.60
2023-01-22T00:16:22.551Z,9.40
2023-01-22T00:18:50.746Z,11.27
2023-01-22T00:21:18.992Z,11.40
2023-01-22T00:23:47.194Z,11.00
2023-01-22T00:26:17.471Z,12.07
2023-01-22T00:28:47.149Z,11.53
2023-01-22T00:31:16.585Z,12.43
2023-01-22T00:33:46.035Z,10.63
2023-01-22T00:36:16.968Z,14.80
2023-01-22T00:38:45.525Z,9.90
2023-01-22T00:41:15.012Z,13.00
2023-01-22T00:43:43.621Z,12.13
2023-01-22T00:46:15.595Z,11.20
2023-01-22T00:48:45.310Z,12.20
2023-01-22T00:51:15.637Z,10.20
2023-01-22T00:53:44.914Z,10.17
2023-01-22T00:56:14.709Z,10.80
2023-01-22T00:58:43.496Z,10.10
2023-01-22T01:01:14.409Z,13.57
2023-01-22T01:03:43.192Z,10.27
2023-01-22T01:06:15.361Z,13.10
2023-01-22T01:08:44.604Z,9.80
2023-01-22T01:11:16.013Z,10.50
2023-01-22T01:13:45.217Z,10.20
2023-01-22T01:16:17.878Z,9.47
2023-01-22T01:18:46.926Z,11.60
2023-01-22T01:21:15.709Z,10.13
2023-01-22T01:23:44.012Z,10.23
2023-01-22T01:26:15.950Z,9.47
2023-01-22T01:28:45.570Z,10.13
2023-01-22T01:31:17.202Z,13.17
2023-01-22T01:33:45.404Z,11.33
2023-01-22T01:36:15.383Z,12.50
2023-01-22T01:38:43.959Z,13.17
2023-01-22T01:41:14.897Z,9.77
2023-01-22T01:43:43.056Z,9.07
2023-01-22T01:46:20.217Z,10.17
2023-01-22T01:48:52.160Z,13.17
2023-01-22T01:51:28.016Z,13.07
2023-01-22T01:53:56.500Z,12.20
2023-01-22T01:56:29.294Z,14.07
2023-01-22T01:59:03.210Z,10.80
2023-01-22T02:01:34.124Z,11.93
2023-01-22T02:04:02.389Z,12.00
2023-01-22T02:06:30.573Z,15.63
2023-01-22T02:09:00.490Z,10.40
2023-01-22T02:11:30.590Z,10.83
2023-01-22T02:14:03.479Z,17.63
2023-01-22T02:16:33.221Z,12.00
2023-01-22T02:19:01.591Z,12.33
2023-01-22T02:21:37.735Z,11.50
2023-01-22T02:24:08.389Z,12.47
2023-01-22T02:26:37.219Z,12.27
2023-01-22T02:29:08.037Z,12.37
2023-01-22T02:31:36.886Z,11.43
2023-01-22T02:34:06.011Z,12.27
2023-01-22T02:36:37.500Z,13.30
2023-01-22T02:39:06.368Z,13.67
2023-01-22T02:41:34.646Z,12.10
2023-01-22T02:44:02.927Z,13.03
2023-01-22T02:46:31.249Z,13.20
2023-01-22T02:48:59.481Z,13.63
2023-01-22T02:51:27.858Z,13.37
2023-01-22T02:53:57.455Z,11.83
2023-01-22T02:56:25.710Z,14.00
2023-01-22T02:58:54.004Z,11.30
2023-01-22T03:01:24.322Z,13.13
2023-01-22T03:03:54.351Z,11.33
2023-01-22T03:06:24.494Z,12.50
2023-01-22T03:08:55.065Z,13.33
2023-01-22T03:11:25.677Z,14.17
2023-01-22T03:14:11.712Z,13.57
2023-01-22T03:16:57.686Z,14.23
2023-01-22T03:19:43.585Z,11.03
2023-01-22T03:22:12.009Z,15.00
2023-01-22T03:24:40.250Z,11.73
2023-01-22T03:27:10.236Z,14.97
2023-01-22T03:29:39.267Z,12.10
2023-01-22T03:32:08.086Z,13.43
2023-01-22T03:34:36.976Z,15.43
2023-01-22T03:37:05.191Z,11.87
2023-01-22T03:39:34.236Z,15.13
2023-01-22T03:42:02.786Z,12.03
2023-01-22T03:44:32.437Z,12.83
2023-01-22T03:47:00.822Z,16.27
2023-01-22T03:49:28.915Z,16.33
2023-01-22T03:51:58.750Z,10.87
2023-01-22T03:54:27.032Z,12.17
2023-01-22T03:56:55.444Z,12.23
2023-01-22T03:59:23.842Z,11.40
2023-01-22T04:01:53.867Z,13.20
2023-01-22T04:04:22.244Z,10.63
2023-01-22T04:06:50.591Z,13.47
2023-01-22T04:09:18.859Z,11.60
2023-01-22T04:11:47.077Z,12.30
2023-01-22T04:14:15.413Z,12.33
2023-01-22T04:16:43.762Z,11.10
2023-01-22T04:19:14.771Z,12.60
2023-01-22T04:21:42.974Z,13.43
2023-01-22T04:24:11.230Z,12.33
2023-01-22T04:26:39.388Z,11.53
2023-01-22T04:29:07.694Z,13.17
2023-01-22T04:31:36.074Z,12.17
2023-01-22T04:34:04.292Z,12.07
2023-01-22T04:36:34.027Z,12.63
2023-01-22T04:39:02.189Z,14.20
2023-01-22T04:41:30.300Z,12.50
2023-01-22T04:43:58.643Z,15.10
2023-01-22T04:46:26.867Z,12.47
2023-01-22T04:48:55.041Z,11.97
2023-01-22T04:51:23.250Z,11.47
2023-01-22T04:53:52.947Z,12.43
2023-01-22T04:56:21.237Z,12.60
2023-01-22T04:58:49.818Z,11.60
2023-01-22T05:01:18.095Z,12.83
2023-01-22T05:03:46.403Z,12.43
2023-01-22T05:06:14.565Z,12.70
2023-01-22T05:08:42.779Z,14.67
2023-01-22T05:11:12.422Z,11.50
2023-01-22T05:13:40.649Z,14.37
2023-01-22T05:16:09.207Z,12.77
2023-01-22T05:18:37.510Z,8.67
2023-01-22T05:21:05.909Z,13.57
2023-01-22T05:23:34.083Z,11.70
2023-01-22T05:26:02.413Z,11.23
2023-01-22T05:28:32.235Z,11.77
2023-01-22T05:31:00.468Z,13.10
2023-01-22T05:33:30.532Z,10.27
2023-01-22T05:35:59.404Z,13.30
2023-01-22T05:38:29.320Z,11.20
2023-01-22T05:40:58.088Z,12.33
2023-01-22T05:43:26.252Z,11.03
2023-01-22T05:45:55.803Z,10.57
2023-01-22T05:48:24.163Z,10.43
2023-01-22T05:50:52.475Z,11.83
2023-01-22T05:53:20.668Z,12.77
2023-01-22T05:55:48.932Z,10.60
2023-01-22T05:58:17.252Z,11.60
2023-01-22T06:00:45.415Z,12.37
2023-01-22T06:03:15.022Z,10.13
2023-01-22T06:05:43.308Z,14.23
2023-01-22T06:08:11.512Z,13.37
2023-01-22T06:10:39.863Z,9.70
2023-01-22T06:13:08.211Z,10.63
2023-01-22T06:15:36.568Z,11.20
2023-01-22T06:18:05.091Z,10.90
2023-01-22T06:20:34.781Z,10.17
2023-01-22T06:23:02.983Z,10.17
2023-01-22T06:25:31.360Z,10.43
2023-01-22T06:27:59.621Z,11.13
2023-01-22T06:30:27.749Z,10.73
2023-01-22T06:32:56.113Z,12.93
2023-01-22T06:35:24.581Z,10.43
2023-01-22T06:37:54.838Z,13.33
2023-01-22T06:40:23.027Z,11.47
2023-01-22T06:42:51.178Z,9.73
2023-01-22T06:45:19.768Z,10.90
2023-01-22T06:47:48.244Z,8.93
2023-01-22T06:50:17.344Z,9.27
2023-01-22T06:52:45.676Z,10.20
2023-01-22T06:55:15.419Z,9.17
2023-01-22T06:57:43.729Z,7.90
2023-01-22T07:00:12.714Z,9.73
2023-01-22T07:02:41.176Z,9.93
2023-01-22T07:05:10.049Z,9.13
2023-01-22T07:07:38.224Z,8.23
2023-01-22T07:10:06.909Z,10.57
2023-01-22T07:12:36.857Z,11.43
2023-01-22T07:15:06.908Z,13.00
2023-01-22T07:17:37.090Z,10.43
2023-01-22T07:20:05.998Z,10.80
2023-01-22T07:22:34.301Z,8.23
2023-01-22T07:25:02.423Z,7.27
2023-01-22T07:27:32.675Z,7.37
2023-01-22T07:30:02.388Z,8.37
2023-01-22T07:32:30.523Z,7.97
2023-01-22T07:34:58.672Z,9.33
2023-01-22T07:37:26.816Z,24.83
2023-01-22T07:39:55.079Z,7.53
2023-01-22T07:42:23.325Z,17.60
2023-01-22T07:44:51.536Z,11.50
2023-01-22T07:47:21.268Z,31.73
2023-01-22T07:49:49.523Z,7.73
2023-01-22T07:52:17.819Z,7.43
2023-01-22T07:54:46.039Z,6.53
2023-01-22T07:57:15.572Z,6.73
2023-01-22T07:59:43.984Z,7.43
2023-01-22T08:02:16.151Z,7.63
2023-01-22T08:04:45.978Z,5.93
2023-01-22T08:07:17.679Z,6.83
2023-01-22T08:09:45.958Z,7.53
2023-01-22T08:12:14.158Z,6.30
2023-01-22T08:14:42.431Z,7.23
2023-01-22T08:17:10.646Z,5.10
2023-01-22T08:19:38.888Z,6.07
2023-01-22T08:22:09.124Z,6.30
2023-01-22T08:24:37.300Z,5.70
2023-01-22T08:27:05.799Z,4.87
2023-01-22T08:29:33.960Z,5.70
2023-01-22T08:32:02.234Z,5.50
2023-01-22T08:34:30.508Z,6.50
2023-01-22T08:36:58.688Z,5.83
2023-01-22T08:39:28.523Z,5.23
2023-01-22T08:41:58.228Z,5.53
2023-01-22T08:44:27.168Z,5.50
2023-01-22T08:46:55.672Z,7.73
2023-01-22T08:49:23.853Z,5.13
2023-01-22T08:51:52.065Z,5.30
2023-01-22T08:54:20.295Z,6.63
2023-01-22T08:56:50.300Z,5.53
2023-01-22T08:59:18.452Z,8.27
2023-01-22T09:01:46.715Z,6.00
2023-01-22T09:04:14.984Z,5.83
2023-01-22T09:06:43.129Z,4.87
2023-01-22T09:09:11.507Z,5.93
2023-01-22T09:11:39.887Z,4.50
2023-01-22T09:14:10.096Z,5.20
2023-01-22T09:16:38.551Z,5.40
2023-01-22T09:19:07.319Z,5.03
2023-01-22T09:21:37.404Z,5.97
2023-01-22T09:24:05.983Z,7.60
2023-01-22T09:26:34.351Z,8.20
2023-01-22T09:29:05.732Z,6.33
2023-01-22T09:31:35.718Z,7.17
2023-01-22T09:34:04.671Z,6.50
2023-01-22T09:36:33.128Z,7.97
2023-01-22T09:39:01.394Z,7.67
2023-01-22T09:41:34.162Z,9.93
2023-01-22T09:44:05.017Z,7.47
2023-01-22T09:46:38.920Z,10.07
2023-01-22T09:49:13.355Z,7.43
2023-01-22T09:51:41.611Z,9.03
2023-01-22T09:54:15.579Z,10.67
2023-01-22T09:56:45.788Z,9.03
2023-01-22T09:59:18.600Z,9.63
2023-01-22T10:01:54.513Z,7.20
2023-01-22T10:04:34.491Z,7.57
2023-01-22T10:07:04.689Z,7.07
2023-01-22T10:09:34.303Z,6.77
2023-01-22T10:12:11.877Z,6.63
2023-01-22T10:14:40.352Z,8.07
2023-01-22T10:17:20.185Z,8.07
2023-01-22T10:19:53.055Z,8.40
2023-01-22T10:22:23.444Z,8.47
2023-01-22T10:24:52.444Z,7.53
2023-01-22T10:27:23.767Z,6.80
2023-01-22T10:30:00.977Z,6.43
2023-01-22T10:32:32.340Z,6.53
2023-01-22T10:35:02.238Z,10.23
2023-01-22T10:37:31.011Z,9.27
2023-01-22T10:40:00.935Z,6.63
2023-01-22T10:42:30.839Z,7.87
2023-01-22T10:45:10.240Z,7.43
2023-01-22T10:47:39.922Z,6.20
2023-01-22T10:50:14.349Z,6.70
2023-01-22T10:52:45.098Z,6.67
2023-01-22T10:55:24.816Z,6.47
2023-01-22T10:57:57.917Z,7.90
2023-01-22T11:00:46.620Z,5.83
2023-01-22T11:03:23.311Z,7.33
2023-01-22T11:05:56.271Z,6.00
2023-01-22T11:08:29.405Z,7.80
2023-01-22T11:11:02.599Z,8.17
2023-01-22T11:13:37.502Z,5.50
2023-01-22T11:16:11.166Z,5.83
2023-01-22T11:18:44.499Z,6.47
2023-01-22T11:21:17.023Z,7.43
2023-01-22T11:23:53.493Z,5.67
2023-01-22T11:26:32.588Z,6.27
2023-01-22T11:29:08.451Z,3.83
2023-01-22T11:32:01.763Z,5.37
2023-01-22T11:34:53.513Z,5.47
2023-01-22T11:37:30.296Z,7.17
2023-01-22T11:40:14.592Z,5.87
2023-01-22T11:42:58.404Z,7.07
2023-01-22T11:45:40.735Z,5.20
2023-01-22T11:48:24.274Z,5.43
2023-01-22T11:51:00.473Z,6.03
2023-01-22T11:53:47.016Z,4.53
2023-01-22T11:56:34.150Z,5.13
2023-01-22T11:59:09.983Z,8.67
2023-01-22T12:01:51.815Z,5.20
2023-01-22T12:04:40.292Z,6.33
2023-01-22T12:07:29.509Z,6.17
2023-01-22T12:10:22.592Z,18.00
2023-01-22T12:13:01.204Z,14.07
2023-01-22T12:15:39.199Z,9.27
2023-01-22T12:18:39.976Z,7.53
2023-01-22T12:21:10.389Z,7.00
2023-01-22T12:23:48.104Z,11.13
2023-01-22T12:26:20.044Z,7.03
2023-01-22T12:28:53.099Z,12.17
2023-01-22T12:31:25.377Z,8.37
2023-01-22T12:33:53.906Z,9.90
2023-01-22T12:36:25.747Z,11.00
2023-01-22T12:39:00.899Z,7.83
2023-01-22T12:41:41.355Z,7.80
2023-01-22T12:44:18.565Z,10.47
2023-01-22T12:46:55.553Z,7.60
2023-01-22T12:49:23.802Z,8.83
2023-01-22T12:51:54.211Z,7.80
2023-01-22T12:54:30.619Z,7.87
2023-01-22T12:57:12.067Z,10.73
2023-01-22T12:59:47.411Z,13.03
2023-01-22T13:02:24.979Z,9.30
2023-01-22T13:04:53.916Z,6.93
2023-01-22T13:07:24.268Z,7.83
2023-01-22T13:10:05.537Z,7.93
2023-01-22T13:12:45.559Z,7.43
2023-01-22T13:15:19.580Z,6.93
2023-01-22T13:18:06.130Z,8.17
2023-01-22T13:20:37.351Z,7.13
2023-01-22T13:23:07.360Z,13.63
2023-01-22T13:25:37.087Z,6.23
2023-01-22T13:28:06.185Z,7.83
2023-01-22T13:30:34.420Z,6.70
2023-01-22T13:33:07.440Z,7.83
2023-01-22T13:35:42.897Z,7.03
2023-01-22T13:38:20.001Z,6.23
2023-01-22T13:40:54.841Z,7.30
2023-01-22T13:43:24.302Z,6.57
2023-01-22T13:45:54.024Z,6.33
2023-01-22T13:48:24.065Z,6.93
2023-01-22T13:50:57.807Z,7.13
2023-01-22T13:53:33.701Z,9.90
2023-01-22T13:56:03.528Z,8.97
2023-01-22T13:58:47.174Z,7.50
2023-01-22T14:01:31.804Z,8.80
2023-01-22T14:04:01.882Z,7.17
2023-01-22T14:06:30.655Z,7.47
2023-01-22T14:08:59.476Z,11.30
2023-01-22T14:11:39.095Z,8.03
2023-01-22T14:14:17.344Z,8.67
2023-01-22T14:16:45.751Z,8.70
2023-01-22T14:19:14.598Z,8.13
2023-01-22T14:21:43.239Z,7.63
2023-01-22T14:24:11.516Z,12.27
2023-01-22T14:26:41.292Z,11.13
2023-01-22T14:29:09.856Z,8.83
2023-01-22T14:31:38.049Z,11.30
2023-01-22T14:34:07.162Z,8.23
2023-01-22T14:36:35.370Z,8.03
2023-01-22T14:39:05.805Z,8.57
2023-01-22T14:41:34.841Z,7.30
2023-01-22T14:44:05.228Z,9.03
2023-01-22T14:46:33.466Z,11.23
2023-01-22T14:49:01.987Z,8.03
2023-01-22T14:51:30.283Z,8.50
2023-01-22T14:53:59.247Z,11.37
2023-01-22T14:56:27.543Z,10.03
2023-01-22T14:58:55.767Z,9.10
2023-01-22T15:01:25.765Z,10.43
2023-01-22T15:03:54.356Z,9.40
2023-01-22T15:06:27.002Z,12.27
2023-01-22T15:08:55.267Z,13.77
2023-01-22T15:11:23.560Z,10.67
2023-01-22T15:13:52.927Z,14.20
2023-01-22T15:16:21.493Z,10.20
2023-01-22T15:18:55.176Z,8.50
2023-01-22T15:21:23.659Z,10.20
2023-01-22T15:23:52.021Z,8.27
2023-01-22T15:26:28.263Z,9.40
2023-01-22T15:28:56.876Z,7.53
2023-01-22T15:31:27.075Z,9.37
2023-01-22T15:33:57.936Z,10.70
2023-01-22T15:36:26.472Z,10.97
2023-01-22T15:38:54.874Z,9.07
2023-01-22T15:41:25.602Z,12.17
2023-01-22T15:43:56.458Z,13.47
2023-01-22T15:46:26.372Z,13.07
2023-01-22T15:48:56.984Z,12.00
2023-01-22T15:51:25.630Z,16.30
2023-01-22T15:53:55.975Z,17.50
2023-01-22T15:56:26.548Z,15.03
2023-01-22T15:58:55.552Z,19.80
2023-01-22T16:01:25.648Z,14.97
2023-01-22T16:03:54.531Z,35.43
2023-01-22T16:06:26.030Z,27.83
2023-01-22T16:08:57.655Z,17.37
2023-01-22T16:11:26.625Z,16.23
2023-01-22T16:13:55.580Z,13.03
2023-01-22T16:16:25.720Z,21.27
2023-01-22T16:18:55.009Z,9.87
2023-01-22T16:21:25.625Z,14.00
2023-01-22T16:23:57.084Z,12.73
2023-01-22T16:26:27.194Z,10.63
2023-01-22T16:28:57.634Z,10.37
2023-01-22T16:31:44.519Z,10.53
2023-01-22T16:34:14.627Z,10.73
2023-01-22T16:36:45.371Z,11.70
2023-01-22T16:39:22.242Z,12.10
2023-01-22T16:41:52.012Z,11.00
2023-01-22T16:44:24.609Z,11.50
2023-01-22T16:46:54.365Z,12.57
2023-01-22T16:49:24.412Z,10.93
2023-01-22T16:51:56.244Z,11.03
2023-01-22T16:54:28.074Z,12.43
2023-01-22T16:56:56.769Z,13.83
2023-01-22T16:59:26.072Z,12.03
2023-01-22T17:01:55.047Z,13.23
2023-01-22T17:04:23.301Z,11.83
2023-01-22T17:06:54.923Z,12.83
2023-01-22T17:09:25.292Z,11.20
2023-01-22T17:11:54.632Z,15.83
2023-01-22T17:14:25.305Z,13.53
2023-01-22T17:16:53.787Z,12.80
2023-01-22T17:19:22.079Z,12.93
2023-01-22T17:21:51.844Z,12.57
2023-01-22T17:24:22.361Z,11.43
2023-01-22T17:26:51.863Z,14.50
2023-01-22T17:29:20.361Z,12.13
2023-01-22T17:31:49.125Z,12.10
2023-01-22T17:34:18.486Z,17.53
2023-01-22T17:36:46.724Z,12.20
2023-01-22T17:39:16.723Z,15.07
2023-01-22T17:41:46.495Z,13.63
2023-01-22T17:44:14.919Z,14.03
2023-01-22T17:46:43.156Z,22.60
2023-01-22T17:49:11.731Z,63.27
2023-01-22T17:51:39.855Z,21.87
2023-01-22T17:54:08.171Z,21.97
2023-01-22T17:56:37.924Z,22.03
2023-01-22T17:59:08.402Z,22.67
2023-01-22T18:01:39.032Z,39.67
2023-01-22T18:04:09.205Z,38.53
2023-01-22T18:06:38.497Z,23.90
2023-01-22T18:09:07.113Z,17.00
2023-01-22T18:11:36.459Z,13.37
2023-01-22T18:14:07.780Z,12.70
2023-01-22T18:16:37.902Z,13.07
2023-01-22T18:19:07.492Z,11.60
2023-01-22T18:21:36.985Z,12.73
2023-01-22T18:24:06.954Z,12.47
2023-01-22T18:26:36.276Z,13.67
2023-01-22T18:29:05.998Z,11.90
2023-01-22T18:31:36.165Z,12.47
2023-01-22T18:34:07.349Z,12.90
2023-01-22T18:36:37.891Z,14.40
2023-01-22T18:39:08.879Z,14.37
2023-01-22T18:41:38.062Z,11.70
2023-01-22T18:44:06.598Z,14.90
2023-01-22T18:46:39.465Z,12.10
2023-01-22T18:49:11.454Z,14.53
2023-01-22T18:51:40.437Z,13.17
2023-01-22T18:54:09.378Z,12.43
2023-01-22T18:56:38.146Z,15.33
2023-01-22T18:59:07.095Z,13.63
2023-01-22T19:01:38.660Z,12.73
2023-01-22T19:04:17.863Z,14.00
2023-01-22T19:06:48.660Z,13.93
2023-01-22T19:09:17.048Z,14.80
2023-01-22T19:11:47.066Z,11.67
2023-01-22T19:14:17.177Z,12.87
2023-01-22T19:16:50.958Z,11.70
2023-01-22T19:19:19.990Z,11.47
2023-01-22T19:21:51.497Z,12.47
2023-01-22T19:24:25.006Z,12.30
2023-01-22T19:26:54.844Z,13.87
2023-01-22T19:29:25.431Z,14.00
2023-01-22T19:31:56.991Z,13.17
2023-01-22T19:34:25.869Z,17.97
2023-01-22T19:36:55.709Z,24.97
2023-01-22T19:39:25.342Z,32.40
2023-01-22T19:41:54.145Z,21.97
2023-01-22T19:44:22.966Z,19.50
2023-01-22T19:46:51.333Z,24.60
2023-01-22T19:49:21.555Z,23.83
2023-01-22T19:51:50.036Z,21.93
2023-01-22T19:54:18.902Z,42.80
2023-01-22T19:56:47.098Z,34.33
2023-01-22T19:59:16.831Z,23.03
2023-01-22T20:01:46.811Z,27.27
2023-01-22T20:04:20.776Z,16.17
2023-01-22T20:06:52.044Z,21.37
2023-01-22T20:09:22.008Z,13.17
2023-01-22T20:11:53.683Z,15.13
2023-01-22T20:14:22.949Z,17.37
2023-01-22T20:16:51.727Z,13.63
2023-01-22T20:19:20.070Z,12.60
2023-01-22T20:21:48.297Z,13.37
2023-01-22T20:24:18.024Z,14.43
2023-01-22T20:26:46.513Z,15.27
2023-01-22T20:29:14.730Z,13.03
2023-01-22T20:31:44.413Z,14.63
2023-01-22T20:34:12.587Z,15.63
2023-01-22T20:36:40.843Z,15.23
2023-01-22T20:39:09.112Z,12.53
2023-01-22T20:41:38.750Z,13.13
2023-01-22T20:44:07.220Z,14.60
2023-01-22T20:46:37.571Z,11.77
2023-01-22T20:49:05.841Z,11.93
2023-01-22T20:51:34.160Z,16.37
2023-01-22T20:54:02.354Z,15.23
2023-01-22T20:56:32.866Z,12.80
2023-01-22T20:59:04.454Z,17.20
2023-01-22T21:01:33.294Z,12.80
2023-01-22T21:04:02.815Z,15.10
2023-01-22T21:06:32.835Z,11.80
2023-01-22T21:09:02.177Z,12.63
2023-01-22T21:11:32.123Z,12.73
2023-01-22T21:14:04.568Z,15.97
2023-01-22T21:16:35.639Z,13.47
2023-01-22T21:19:05.624Z,17.20
2023-01-22T21:21:34.951Z,17.10
2023-01-22T21:24:03.850Z,12.60
2023-01-22T21:26:33.618Z,15.73
2023-01-22T21:29:05.826Z,13.90
2023-01-22T21:31:34.062Z,13.47
2023-01-22T21:34:04.128Z,15.33
2023-01-22T21:36:34.446Z,11.27
2023-01-22T21:39:03.511Z,13.30
2023-01-22T21:41:31.760Z,12.98
2023-01-22T21:44:17.832Z,13.20
2023-01-22T21:46:48.354Z,13.93
2023-01-22T21:49:18.332Z,16.00
2023-01-22T21:51:48.352Z,14.23
2023-01-22T21:54:18.905Z,16.53
2023-01-22T21:56:47.507Z,16.40
2023-01-22T21:59:16.043Z,12.40
2023-01-22T22:01:45.147Z,16.70
2023-01-22T22:04:15.568Z,16.70
2023-01-22T22:06:43.761Z,14.93
2023-01-22T22:09:14.565Z,15.23
2023-01-22T22:11:43.196Z,16.57
2023-01-22T22:14:12.805Z,13.13
2023-01-22T22:16:40.996Z,14.30
2023-01-22T22:19:09.568Z,18.60
2023-01-22T22:21:39.190Z,15.10
2023-01-22T22:24:08.460Z,14.77
2023-01-22T22:26:36.976Z,14.07
2023-01-22T22:29:06.023Z,15.57
2023-01-22T22:31:34.447Z,16.47
2023-01-22T22:34:02.724Z,15.13
2023-01-22T22:36:32.330Z,14.93
2023-01-22T22:39:02.945Z,15.23
2023-01-22T22:41:33.968Z,23.07
2023-01-22T22:44:02.184Z,15.47
2023-01-22T22:46:32.278Z,19.20
2023-01-22T22:49:01.774Z,17.47
2023-01-22T22:51:32.396Z,16.10
2023-01-22T22:54:04.459Z,15.57
2023-01-22T22:56:33.143Z,15.27
2023-01-22T22:59:02.518Z,15.43
2023-01-22T23:01:31.599Z,17.73
2023-01-22T23:04:00.284Z,20.20
2023-01-22T23:06:30.294Z,22.00
2023-01-22T23:08:59.927Z,15.47
2023-01-22T23:11:32.573Z,18.53
2023-01-22T23:14:02.807Z,14.75
2023-01-22T23:16:33.248Z,18.00
2023-01-22T23:19:03.231Z,18.83
2023-01-22T23:21:35.224Z,18.17
2023-01-22T23:24:04.418Z,17.97
2023-01-22T23:26:34.319Z,23.87
2023-01-22T23:29:05.763Z,19.60
2023-01-22T23:31:36.399Z,17.03
2023-01-22T23:34:06.198Z,20.73
2023-01-22T23:36:35.846Z,18.50
2023-01-22T23:39:05.280Z,20.00
2023-01-22T23:41:35.029Z,24.23
2023-01-22T23:44:03.243Z,25.70
2023-01-22T23:46:32.235Z,16.60
2023-01-22T23:49:00.711Z,26.00
2023-01-22T23:51:29.328Z,18.03
2023-01-22T23:53:58.117Z,15.90
2023-01-22T23:56:30.228Z,17.83
2023-01-22T23:59:00.386Z,18.27
